Time;durP1;ratioP1;P1;durP2;ratioP2;P2;SDS_P1;SDS_P2;PMS_P1;PMS_P2;Temp;Humidity;BMP_temperature;BMP_pressure;BME280_temperature;BME280_humidity;BME280_pressure;Samples;Min_cycle;Max_cycle;Signal;HPM_P1;HPM_P2
2023/04/09 00:02:15;;;;;;;14.75;10.85;;;;;16.40;102445.00;;;;5007743;28;20205;-80
2023/04/09 00:04:42;;;;;;;16.52;12.00;;;;;16.40;102442.00;;;;5009351;28;20208;-80
2023/04/09 00:07:09;;;;;;;14.82;10.27;;;;;16.40;102445.00;;;;5012236;28;20693;-80
2023/04/09 00:09:36;;;;;;;16.90;11.25;;;;;16.40;102447.00;;;;5011943;28;20216;-80
2023/04/09 00:12:04;;;;;;;17.77;10.55;;;;;16.40;102441.00;;;;5010389;28;20213;-80
2023/04/09 00:14:33;;;;;;;15.95;11.00;;;;;16.40;102442.00;;;;5011554;28;20216;-80
2023/04/09 00:17:00;;;;;;;15.63;11.35;;;;;16.40;102443.00;;;;5010960;28;20208;-80
2023/04/09 00:19:27;;;;;;;19.17;12.07;;;;;16.40;102444.00;;;;4992206;28;20209;-81
2023/04/09 00:21:55;;;;;;;16.52;10.93;;;;;16.40;102440.00;;;;4992301;28;20205;-80
2023/04/09 00:24:22;;;;;;;16.83;11.57;;;;;16.50;102442.00;;;;5004714;28;21144;-80
2023/04/09 00:26:49;;;;;;;18.27;11.95;;;;;16.50;102441.00;;;;5010783;28;20216;-80
2023/04/09 00:29:16;;;;;;;17.23;11.30;;;;;16.50;102446.00;;;;5011973;28;20228;-80
2023/04/09 00:31:45;;;;;;;16.55;11.23;;;;;16.50;102432.00;;;;5011223;28;20197;-80
2023/04/09 00:34:12;;;;;;;17.77;11.98;;;;;16.50;102432.00;;;;5009383;28;20209;-80
2023/04/09 00:36:40;;;;;;;19.48;12.75;;;;;16.50;102436.00;;;;4992175;28;20194;-80
2023/04/09 00:39:07;;;;;;;17.65;11.27;;;;;16.50;102433.00;;;;5005232;28;20209;-80
2023/04/09 00:41:34;;;;;;;18.90;12.07;;;;;16.50;102430.00;;;;5012084;28;20208;-80
2023/04/09 00:44:01;;;;;;;19.48;12.07;;;;;16.50;102435.00;;;;5010285;28;20200;-80
2023/04/09 00:46:29;;;;;;;16.55;12.38;;;;;16.50;102431.00;;;;5011838;28;20197;-80
2023/04/09 00:48:57;;;;;;;17.67;11.93;;;;;16.50;102425.00;;;;5011122;28;21004;-80
2023/04/09 00:51:25;;;;;;;17.30;11.25;;;;;16.50;102422.00;;;;5010953;28;20599;-80
2023/04/09 00:53:54;;;;;;;16.85;11.48;;;;;16.50;102422.00;;;;5011842;28;20233;-80
2023/04/09 00:56:23;;;;;;;18.38;12.77;;;;;16.50;102422.00;;;;5011660;28;20212;-80
2023/04/09 00:58:50;;;;;;;19.63;12.13;;;;;16.50;102415.00;;;;5012297;28;20208;-80
2023/04/09 01:01:17;;;;;;;17.02;11.68;;;;;16.50;102414.00;;;;5011682;28;20236;-80
2023/04/09 01:03:45;;;;;;;18.02;11.27;;;;;16.50;102415.00;;;;5012254;28;20208;-80
2023/04/09 01:06:21;;;;;;;17.92;12.07;;;;;16.50;102413.00;;;;5011864;28;20205;-80
2023/04/09 01:08:58;;;;;;;19.08;12.40;;;;;16.50;102419.00;;;;5004732;28;20205;-80
2023/04/09 01:11:37;;;;;;;18.30;11.73;;;;;16.40;102417.00;;;;5009638;28;20204;-80
2023/04/09 01:14:12;;;;;;;18.25;11.98;;;;;16.50;102417.00;;;;5010491;28;20237;-80
2023/04/09 01:16:44;;;;;;;17.73;11.73;;;;;16.50;102411.00;;;;5010698;28;20211;-80
2023/04/09 01:19:26;;;;;;;18.70;11.50;;;;;16.40;102415.00;;;;5010581;28;20288;-80
2023/04/09 01:21:56;;;;;;;17.13;11.30;;;;;16.50;102402.00;;;;5010561;28;20193;-80
2023/04/09 01:24:38;;;;;;;18.25;11.82;;;;;16.40;102402.00;;;;5010337;28;20200;-79
2023/04/09 01:27:07;;;;;;;16.90;10.65;;;;;16.50;102407.00;;;;4993882;28;20213;-80
2023/04/09 01:29:40;;;;;;;19.02;12.75;;;;;16.40;102391.00;;;;4991339;28;20221;-80
2023/04/09 01:32:08;;;;;;;16.75;11.65;;;;;16.40;102397.00;;;;4998136;28;20201;-80
2023/04/09 01:34:37;;;;;;;19.55;11.57;;;;;16.40;102397.00;;;;5010259;28;20204;-80
2023/04/09 01:37:06;;;;;;;15.57;11.30;;;;;16.40;102402.00;;;;5009777;28;20204;-79
2023/04/09 01:39:33;;;;;;;17.02;11.77;;;;;16.40;102395.00;;;;5010570;28;20208;-80
2023/04/09 01:42:02;;;;;;;16.85;10.93;;;;;16.40;102400.00;;;;5009564;28;20739;-80
2023/04/09 01:44:30;;;;;;;17.05;11.68;;;;;16.40;102400.00;;;;5010614;28;20295;-80
2023/04/09 01:47:00;;;;;;;16.33;11.38;;;;;16.40;102390.00;;;;5009294;28;20299;-80
2023/04/09 01:49:29;;;;;;;16.63;11.15;;;;;16.40;102396.00;;;;5010562;28;20616;-80
2023/04/09 01:51:56;;;;;;;16.83;10.88;;;;;16.40;102399.00;;;;5009532;28;20197;-80
2023/04/09 01:54:23;;;;;;;17.27;11.45;;;;;16.40;102393.00;;;;5010236;28;20233;-80
2023/04/09 01:56:51;;;;;;;17.48;10.65;;;;;16.40;102393.00;;;;5010023;28;20217;-80
2023/04/09 01:59:18;;;;;;;15.48;11.32;;;;;16.40;102389.00;;;;5008517;28;21152;-80
2023/04/09 02:01:49;;;;;;;18.88;10.35;;;;;16.30;102388.00;;;;5008897;28;20193;-79
2023/04/09 02:04:23;;;;;;;16.13;10.90;;;;;16.30;102394.00;;;;5000445;28;20201;-80
2023/04/09 02:06:57;;;;;;;15.13;10.70;;;;;16.30;102396.00;;;;4994920;28;20201;-80
2023/04/09 02:09:27;;;;;;;15.65;10.85;;;;;16.30;102385.00;;;;5009179;28;20220;-80
2023/04/09 02:11:56;;;;;;;15.13;10.68;;;;;16.40;102384.00;;;;5009153;28;21089;-80
2023/04/09 02:14:25;;;;;;;16.80;11.38;;;;;16.40;102382.00;;;;5009191;28;20239;-80
2023/04/09 02:16:53;;;;;;;16.92;12.25;;;;;16.40;102375.00;;;;5008167;28;20212;-80
2023/04/09 02:19:22;;;;;;;16.30;11.52;;;;;16.40;102375.00;;;;5009081;28;20193;-80
2023/04/09 02:21:49;;;;;;;17.58;12.07;;;;;16.40;102373.00;;;;5008724;28;20281;-80
2023/04/09 02:24:16;;;;;;;17.08;11.90;;;;;16.40;102369.00;;;;5008693;28;20201;-80
2023/04/09 02:26:44;;;;;;;17.42;10.95;;;;;16.40;102366.00;;;;5008617;28;20303;-80
2023/04/09 02:29:11;;;;;;;17.30;11.05;;;;;16.40;102369.00;;;;5009079;28;20208;-80
2023/04/09 02:31:38;;;;;;;17.35;12.38;;;;;16.40;102365.00;;;;5008746;28;20204;-80
2023/04/09 02:34:05;;;;;;;17.75;12.73;;;;;16.40;102371.00;;;;5000374;28;20236;-80
2023/04/09 02:36:34;;;;;;;14.93;11.10;;;;;16.40;102364.00;;;;4989768;28;20197;-80
2023/04/09 02:39:02;;;;;;;18.10;12.25;;;;;16.40;102369.00;;;;4989069;28;20202;-80
2023/04/09 02:41:30;;;;;;;16.83;11.88;;;;;16.40;102368.00;;;;5007610;28;20216;-80
2023/04/09 02:43:57;;;;;;;17.55;10.82;;;;;16.40;102367.00;;;;5008710;28;20204;-80
2023/04/09 02:46:24;;;;;;;17.45;11.43;;;;;16.40;102362.00;;;;5009504;28;20198;-80
2023/04/09 02:48:52;;;;;;;17.60;11.60;;;;;16.40;102361.00;;;;5009658;28;20201;-80
2023/04/09 02:51:19;;;;;;;18.33;11.60;;;;;16.40;102360.00;;;;4998402;28;20201;-80
2023/04/09 02:53:48;;;;;;;16.05;11.02;;;;;16.40;102353.00;;;;4989311;28;20233;-80
2023/04/09 02:56:15;;;;;;;17.10;11.48;;;;;16.40;102359.00;;;;4988633;28;20205;-80
2023/04/09 02:58:43;;;;;;;18.17;11.52;;;;;16.40;102358.00;;;;4989665;28;20221;-80
2023/04/09 03:01:10;;;;;;;19.27;12.38;;;;;16.40;102359.00;;;;4990557;28;20229;-80
2023/04/09 03:03:40;;;;;;;18.30;11.45;;;;;16.40;102353.00;;;;5007944;28;20273;-80
2023/04/09 03:06:08;;;;;;;16.23;11.25;;;;;16.40;102359.00;;;;5009181;28;20220;-80
2023/04/09 03:08:35;;;;;;;16.85;11.73;;;;;16.40;102359.00;;;;4996216;28;20217;-80
2023/04/09 03:11:04;;;;;;;17.88;11.55;;;;;16.40;102353.00;;;;4989483;28;20217;-80
2023/04/09 03:13:31;;;;;;;15.55;11.25;;;;;16.40;102360.00;;;;4989415;28;20226;-80
2023/04/09 03:15:58;;;;;;;14.88;10.77;;;;;16.40;102359.00;;;;4988929;28;20193;-80
2023/04/09 03:18:26;;;;;;;17.77;11.85;;;;;16.40;102349.00;;;;4988420;28;20204;-80
2023/04/09 03:20:53;;;;;;;16.73;11.68;;;;;16.40;102353.00;;;;4989364;28;20205;-80
2023/04/09 03:23:20;;;;;;;16.38;12.10;;;;;16.40;102355.00;;;;4988941;28;20201;-79
2023/04/09 03:25:47;;;;;;;17.83;12.40;;;;;16.40;102355.00;;;;4989431;28;20201;-80
2023/04/09 03:28:16;;;;;;;20.23;11.90;;;;;16.40;102343.00;;;;4989031;28;20201;-80
2023/04/09 03:30:43;;;;;;;19.52;12.48;;;;;16.40;102351.00;;;;4988645;28;20205;-80
2023/04/09 03:33:11;;;;;;;26.08;12.45;;;;;16.40;102339.00;;;;5005720;28;20224;-80
2023/04/09 03:35:38;;;;;;;18.55;12.40;;;;;16.30;102339.00;;;;5009362;28;20196;-80
2023/04/09 03:38:05;;;;;;;19.15;12.93;;;;;16.30;102334.00;;;;5008892;28;20200;-80
2023/04/09 03:40:32;;;;;;;18.67;11.68;;;;;16.30;102338.00;;;;5011660;28;20193;-80
2023/04/09 03:43:00;;;;;;;17.52;12.57;;;;;16.30;102332.00;;;;4995625;28;21033;-80
2023/04/09 03:45:30;;;;;;;16.73;11.40;;;;;16.30;102334.00;;;;4993227;28;20672;-80
2023/04/09 03:47:57;;;;;;;16.50;11.27;;;;;16.30;102337.00;;;;4992486;28;20217;-80
2023/04/09 03:50:24;;;;;;;16.70;11.50;;;;;16.30;102330.00;;;;4992885;28;20598;-80
2023/04/09 03:52:51;;;;;;;18.13;11.90;;;;;16.30;102327.00;;;;4992595;28;20196;-80
2023/04/09 03:55:19;;;;;;;18.33;12.50;;;;;16.30;102329.00;;;;4992509;28;20201;-79
2023/04/09 03:57:46;;;;;;;19.20;12.43;;;;;16.30;102333.00;;;;4992452;28;20201;-80
2023/04/09 04:00:13;;;;;;;16.40;11.50;;;;;16.30;102331.00;;;;4993301;28;20237;-80
2023/04/09 04:02:42;;;;;;;17.88;12.82;;;;;16.30;102327.00;;;;5007027;28;20212;-80
2023/04/09 04:05:10;;;;;;;17.75;11.40;;;;;16.30;102333.00;;;;5011537;28;20193;-80
2023/04/09 04:07:37;;;;;;;18.15;12.25;;;;;16.30;102324.00;;;;5011997;28;20197;-80
2023/04/09 04:10:19;;;;;;;18.00;11.38;;;;;16.20;102324.00;;;;4908123;28;20656;-80
2023/04/09 04:12:46;;;;;;;15.02;10.63;;;;;16.30;102328.00;;;;4962070;28;20197;-80
2023/04/09 04:15:14;;;;;;;15.82;11.32;;;;;16.30;102326.00;;;;5009794;28;20196;-80
2023/04/09 04:17:42;;;;;;;17.83;11.70;;;;;16.30;102326.00;;;;4991297;28;20206;-80
2023/04/09 04:20:10;;;;;;;15.20;11.18;;;;;16.30;102330.00;;;;5004359;28;20205;-80
2023/04/09 04:22:38;;;;;;;18.33;11.98;;;;;16.20;102322.00;;;;5011296;28;20197;-77
2023/04/09 04:25:06;;;;;;;15.25;10.88;;;;;16.30;102319.00;;;;5011964;28;20216;-77
2023/04/09 04:27:33;;;;;;;17.45;11.18;;;;;16.30;102320.00;;;;5012296;28;20212;-77
2023/04/09 04:30:00;;;;;;;17.02;11.65;;;;;16.20;102314.00;;;;5010717;28;20196;-77
2023/04/09 04:32:28;;;;;;;15.95;11.27;;;;;16.20;102315.00;;;;5007250;28;20213;-78
2023/04/09 04:34:57;;;;;;;16.48;11.68;;;;;16.20;102318.00;;;;5011703;28;20934;-77
2023/04/09 04:37:25;;;;;;;16.10;10.90;;;;;16.20;102323.00;;;;5011539;28;20662;-78
2023/04/09 04:39:52;;;;;;;18.80;12.18;;;;;16.20;102315.00;;;;5006216;28;20210;-78
2023/04/09 04:42:19;;;;;;;16.88;11.65;;;;;16.20;102316.00;;;;4992111;28;20193;-77
2023/04/09 04:44:47;;;;;;;19.65;12.73;;;;;16.20;102315.00;;;;4991684;28;20198;-78
2023/04/09 04:47:14;;;;;;;18.35;12.25;;;;;16.20;102319.00;;;;4991057;28;20206;-77
2023/04/09 04:49:41;;;;;;;16.45;11.35;;;;;16.20;102320.00;;;;4991993;28;20210;-77
2023/04/09 04:52:10;;;;;;;20.25;12.63;;;;;16.20;102322.00;;;;4991727;28;20209;-77
2023/04/09 04:54:37;;;;;;;18.15;11.65;;;;;16.20;102327.00;;;;4991327;28;20221;-78
2023/04/09 04:57:04;;;;;;;19.20;13.15;;;;;16.20;102321.00;;;;4996531;28;20208;-77
2023/04/09 04:59:32;;;;;;;19.27;12.52;;;;;16.20;102319.00;;;;5010868;28;20208;-80
2023/04/09 05:02:01;;;;;;;21.85;13.55;;;;;16.20;102328.00;;;;5011093;28;20403;-80
2023/04/09 05:04:28;;;;;;;22.45;14.75;;;;;16.20;102318.00;;;;5011478;28;20201;-80
2023/04/09 05:06:55;;;;;;;20.17;14.30;;;;;16.20;102318.00;;;;5010356;28;20224;-80
2023/04/09 05:09:24;;;;;;;22.88;13.95;;;;;16.20;102318.00;;;;5010415;28;20231;-80
2023/04/09 05:11:51;;;;;;;20.70;13.73;;;;;16.20;102317.00;;;;5010564;28;20747;-80
2023/04/09 05:14:20;;;;;;;24.85;15.75;;;;;16.20;102314.00;;;;5010329;28;20248;-80
2023/04/09 05:16:47;;;;;;;24.73;14.85;;;;;16.20;102321.00;;;;5011069;28;20205;-80
2023/04/09 05:19:14;;;;;;;24.70;15.93;;;;;16.20;102313.00;;;;5010587;28;20671;-80
2023/04/09 05:21:42;;;;;;;27.27;17.42;;;;;16.20;102318.00;;;;5010069;28;20208;-79
2023/04/09 05:24:09;;;;;;;25.65;16.70;;;;;16.20;102325.00;;;;5010250;28;20581;-80
2023/04/09 05:26:37;;;;;;;27.55;17.08;;;;;16.20;102328.00;;;;5010333;28;20197;-80
2023/04/09 05:29:05;;;;;;;27.58;16.50;;;;;16.20;102322.00;;;;4995342;28;20208;-80
2023/04/09 05:31:32;;;;;;;29.02;19.63;;;;;16.20;102324.00;;;;5011257;28;20201;-79
2023/04/09 05:33:59;;;;;;;28.05;18.10;;;;;16.10;102328.00;;;;5009034;28;20228;-79
2023/04/09 05:36:27;;;;;;;30.65;18.75;;;;;16.10;102329.00;;;;5010203;28;20598;-80
2023/04/09 05:38:54;;;;;;;30.27;19.10;;;;;16.10;102323.00;;;;5009253;28;20196;-80
2023/04/09 05:41:21;;;;;;;28.25;18.45;;;;;16.10;102334.00;;;;4999382;28;20586;-80
2023/04/09 05:43:50;;;;;;;27.50;18.08;;;;;16.10;102326.00;;;;4990652;28;20213;-80
2023/04/09 05:46:17;;;;;;;29.13;17.95;;;;;16.10;102326.00;;;;4990603;28;20209;-80
2023/04/09 05:48:44;;;;;;;28.17;18.48;;;;;16.10;102330.00;;;;5009112;28;20197;-79
2023/04/09 05:51:12;;;;;;;28.13;18.10;;;;;16.10;102327.00;;;;5009860;28;20215;-80
2023/04/09 05:53:39;;;;;;;28.17;18.13;;;;;16.10;102326.00;;;;5010501;28;20233;-80
2023/04/09 05:56:14;;;;;;;26.85;17.60;;;;;16.00;102319.00;;;;5010096;28;20220;-80
2023/04/09 05:58:41;;;;;;;30.23;18.20;;;;;16.10;102332.00;;;;4996261;28;20219;-79
2023/04/09 06:01:10;;;;;;;26.88;17.48;;;;;16.10;102329.00;;;;4989657;28;20240;-80
2023/04/09 06:03:37;;;;;;;29.13;18.10;;;;;16.10;102332.00;;;;4990559;28;20201;-80
2023/04/09 06:06:05;;;;;;;28.00;17.63;;;;;16.10;102337.00;;;;4990685;28;20204;-79
2023/04/09 06:08:32;;;;;;;26.15;17.50;;;;;16.20;102336.00;;;;4990469;28;20206;-79
2023/04/09 06:11:00;;;;;;;25.10;16.05;;;;;16.20;102339.00;;;;4989813;28;20230;-80
2023/04/09 06:13:27;;;;;;;28.35;17.70;;;;;16.20;102333.00;;;;4990093;28;20194;-80
2023/04/09 06:15:55;;;;;;;24.23;16.90;;;;;16.20;102335.00;;;;5005033;28;20205;-80
2023/04/09 06:18:23;;;;;;;22.77;15.73;;;;;16.20;102332.00;;;;5008477;28;20197;-80
2023/04/09 06:20:50;;;;;;;25.52;16.85;;;;;16.20;102333.00;;;;5009431;28;20690;-80
2023/04/09 06:23:18;;;;;;;25.17;16.77;;;;;16.20;102338.00;;;;5009481;28;20197;-79
2023/04/09 06:25:45;;;;;;;21.42;14.57;;;;;16.30;102334.00;;;;5008544;28;20208;-79
2023/04/09 06:28:12;;;;;;;23.60;16.35;;;;;16.30;102339.00;;;;5009590;28;20205;-79
2023/04/09 06:30:40;;;;;;;21.17;13.95;;;;;16.30;102341.00;;;;5009434;28;20205;-80
2023/04/09 06:33:07;;;;;;;20.20;13.90;;;;;16.30;102347.00;;;;4995929;28;20197;-80
2023/04/09 06:35:36;;;;;;;26.48;14.75;;;;;16.30;102354.00;;;;5009400;28;20718;-79
2023/04/09 06:38:04;;;;;;;20.83;14.18;;;;;16.40;102350.00;;;;5009799;28;21108;-80
2023/04/09 06:40:31;;;;;;;18.73;13.18;;;;;16.40;102347.00;;;;5009780;28;20217;-80
2023/04/09 06:42:58;;;;;;;18.92;12.48;;;;;16.50;102356.00;;;;5009257;28;20205;-80
2023/04/09 06:45:26;;;;;;;17.73;12.77;;;;;16.50;102348.00;;;;5009331;28;20205;-80
2023/04/09 06:47:53;;;;;;;16.42;12.10;;;;;16.50;102350.00;;;;5009256;28;20212;-80
2023/04/09 06:50:20;;;;;;;20.58;13.88;;;;;16.50;102354.00;;;;4990022;28;20213;-80
2023/04/09 06:52:49;;;;;;;18.05;12.02;;;;;16.60;102354.00;;;;4989379;28;20931;-80
2023/04/09 06:55:17;;;;;;;18.75;12.45;;;;;16.60;102352.00;;;;4997545;28;20236;-80
2023/04/09 06:57:44;;;;;;;19.13;12.27;;;;;16.70;102360.00;;;;5008424;28;20197;-80
2023/04/09 07:00:12;;;;;;;18.13;11.75;;;;;16.70;102360.00;;;;4993404;28;20244;-79
2023/04/09 07:02:39;;;;;;;17.73;11.90;;;;;16.70;102359.00;;;;4988741;28;20205;-79
2023/04/09 07:05:07;;;;;;;17.38;12.50;;;;;16.80;102358.00;;;;4988824;28;20688;-80
2023/04/09 07:07:35;;;;;;;16.48;11.52;;;;;16.80;102367.00;;;;4989036;28;20329;-80
2023/04/09 07:10:05;;;;;;;15.95;10.85;;;;;16.90;102359.00;;;;4988827;28;20218;-80
2023/04/09 07:12:33;;;;;;;18.77;12.52;;;;;16.90;102360.00;;;;5006727;28;20570;-80
2023/04/09 07:15:01;;;;;;;16.25;11.60;;;;;17.00;102357.00;;;;5008192;28;20229;-80
2023/04/09 07:17:29;;;;;;;17.08;12.38;;;;;17.00;102356.00;;;;5008895;28;20205;-80
2023/04/09 07:19:56;;;;;;;16.10;11.57;;;;;17.10;102357.00;;;;5008814;28;20208;-80
2023/04/09 07:22:24;;;;;;;15.57;10.98;;;;;17.10;102354.00;;;;5007584;28;20208;-80
2023/04/09 07:24:53;;;;;;;16.83;11.90;;;;;17.20;102361.00;;;;5007598;28;20201;-79
2023/04/09 07:27:23;;;;;;;15.52;11.25;;;;;17.20;102355.00;;;;5007132;28;20205;-80
2023/04/09 07:29:51;;;;;;;16.33;11.25;;;;;17.30;102364.00;;;;5008652;28;20570;-81
2023/04/09 07:32:18;;;;;;;16.45;11.25;;;;;17.40;102370.00;;;;5008635;28;20579;-80
2023/04/09 07:34:45;;;;;;;14.80;11.40;;;;;17.50;102366.00;;;;5004268;28;20225;-80
2023/04/09 07:37:13;;;;;;;14.65;10.10;;;;;17.50;102364.00;;;;5008060;28;20205;-79
2023/04/09 07:39:41;;;;;;;14.45;10.57;;;;;17.60;102372.00;;;;5003769;28;20205;-80
2023/04/09 07:42:08;;;;;;;18.30;12.60;;;;;17.60;102363.00;;;;5007917;28;20572;-79
2023/04/09 07:44:37;;;;;;;15.00;10.88;;;;;17.70;102364.00;;;;5008371;28;20676;-80
2023/04/09 07:47:06;;;;;;;16.05;11.52;;;;;17.70;102367.00;;;;5007968;28;20744;-80
2023/04/09 07:49:33;;;;;;;16.05;10.98;;;;;17.80;102364.00;;;;5009287;28;20201;-80
2023/04/09 07:52:01;;;;;;;14.70;10.88;;;;;17.80;102360.00;;;;5007763;28;20216;-81
2023/04/09 07:54:28;;;;;;;16.40;11.98;;;;;17.80;102361.00;;;;5008585;28;20228;-80
2023/04/09 07:56:56;;;;;;;17.55;11.10;;;;;17.80;102351.00;;;;5000680;28;20280;-80
2023/04/09 07:59:23;;;;;;;13.95;10.20;;;;;17.90;102357.00;;;;4988646;28;20268;-80
2023/04/09 08:01:52;;;;;;;15.38;10.68;;;;;17.80;102351.00;;;;4988025;28;20209;-80
2023/04/09 08:04:19;;;;;;;13.90;10.55;;;;;17.90;102358.00;;;;4988776;28;20212;-80
2023/04/09 08:06:49;;;;;;;18.20;10.85;;;;;17.90;102352.00;;;;4988655;28;20213;-80
2023/04/09 08:09:17;;;;;;;13.55;10.35;;;;;17.90;102363.00;;;;4987971;28;21902;-80
2023/04/09 08:11:46;;;;;;;15.82;11.48;;;;;17.90;102365.00;;;;5005372;28;20671;-81
2023/04/09 08:14:14;;;;;;;15.65;11.38;;;;;17.90;102363.00;;;;4998494;28;20210;-80
2023/04/09 08:16:42;;;;;;;14.57;10.52;;;;;18.00;102359.00;;;;4987947;28;20217;-80
2023/04/09 08:19:11;;;;;;;14.02;10.48;;;;;18.00;102363.00;;;;4988710;28;20582;-80
2023/04/09 08:21:41;;;;;;;17.88;12.07;;;;;18.10;102360.00;;;;4988286;28;20245;-80
2023/04/09 08:24:10;;;;;;;20.02;12.38;;;;;18.10;102362.00;;;;4989013;28;20209;-80
2023/04/09 08:26:38;;;;;;;16.48;11.80;;;;;18.20;102363.00;;;;4993067;28;20236;-80
2023/04/09 08:29:05;;;;;;;15.68;11.90;;;;;18.20;102360.00;;;;4992111;28;20672;-80
2023/04/09 08:31:33;;;;;;;15.95;11.65;;;;;18.30;102361.00;;;;4993280;28;20216;-80
2023/04/09 08:34:00;;;;;;;16.98;12.10;;;;;18.30;102363.00;;;;5004394;28;20200;-80
2023/04/09 08:36:30;;;;;;;18.40;12.00;;;;;18.40;102362.00;;;;5010906;28;20694;-80
2023/04/09 08:38:59;;;;;;;17.73;12.93;;;;;18.50;102362.00;;;;5002652;28;20664;-80
2023/04/09 08:41:28;;;;;;;18.73;13.88;;;;;18.50;102366.00;;;;5010062;28;20212;-80
2023/04/09 08:43:57;;;;;;;17.52;13.40;;;;;18.60;102355.00;;;;5011289;28;20625;-80
2023/04/09 08:46:26;;;;;;;18.90;12.93;;;;;18.60;102359.00;;;;5012243;28;20208;-80
2023/04/09 08:48:53;;;;;;;18.05;13.50;;;;;18.70;102367.00;;;;4996347;28;20214;-80
2023/04/09 08:51:22;;;;;;;17.83;13.43;;;;;18.70;102368.00;;;;4992605;28;20204;-81
2023/04/09 08:53:56;;;;;;;21.00;14.75;;;;;18.80;102364.00;;;;4992134;28;20586;-80
2023/04/09 08:56:23;;;;;;;18.88;14.23;;;;;18.90;102363.00;;;;4994123;28;20241;-80
2023/04/09 08:58:51;;;;;;;17.60;13.13;;;;;18.90;102361.00;;;;4993607;28;20582;-81
2023/04/09 09:01:23;;;;;;;19.15;14.20;;;;;18.90;102365.00;;;;4995012;28;20234;-81
2023/04/09 09:03:56;;;;;;;18.80;13.15;;;;;18.90;102358.00;;;;5003764;28;20565;-80
2023/04/09 09:06:26;;;;;;;18.83;13.95;;;;;18.90;102359.00;;;;4992385;28;20205;-81
2023/04/09 09:09:09;;;;;;;21.08;15.95;;;;;18.80;102360.00;;;;4991752;28;20201;-80
2023/04/09 09:11:38;;;;;;;18.73;14.15;;;;;18.90;102362.00;;;;4989284;28;20297;-80
2023/04/09 09:14:07;;;;;;;20.52;15.85;;;;;18.90;102358.00;;;;4999776;28;20205;-80
2023/04/09 09:16:38;;;;;;;20.35;15.32;;;;;19.00;102359.00;;;;5010777;28;20224;-80
2023/04/09 09:19:06;;;;;;;22.50;16.00;;;;;19.10;102356.00;;;;5010405;28;20805;-80
2023/04/09 09:21:35;;;;;;;20.85;15.23;;;;;19.30;102350.00;;;;5008603;28;20216;-81
2023/04/09 09:24:02;;;;;;;22.75;16.35;;;;;19.40;102355.00;;;;5006216;28;20200;-80
2023/04/09 09:26:31;;;;;;;19.92;15.80;;;;;19.40;102345.00;;;;5011028;28;20320;-81
2023/04/09 09:29:04;;;;;;;22.70;16.73;;;;;19.40;102349.00;;;;5009746;28;20201;-80
2023/04/09 09:31:34;;;;;;;21.60;16.10;;;;;19.50;102352.00;;;;5011213;28;20209;-80
2023/04/09 09:34:09;;;;;;;21.95;15.52;;;;;19.40;102346.00;;;;5009883;28;20196;-81
2023/04/09 09:36:36;;;;;;;23.88;16.48;;;;;19.50;102347.00;;;;5010141;28;20263;-81
2023/04/09 09:39:08;;;;;;;23.00;15.85;;;;;19.60;102342.00;;;;5001021;28;20210;-81
2023/04/09 09:41:37;;;;;;;19.38;14.75;;;;;19.60;102335.00;;;;4990977;28;20225;-80
2023/04/09 09:44:06;;;;;;;19.20;15.10;;;;;19.70;102340.00;;;;4990783;28;20197;-81
2023/04/09 09:46:35;;;;;;;18.55;15.07;;;;;19.70;102338.00;;;;4992455;28;20201;-81
2023/04/09 09:49:03;;;;;;;21.50;16.08;;;;;19.80;102343.00;;;;4990840;28;20238;-81
2023/04/09 09:51:32;;;;;;;23.20;15.68;;;;;19.80;102341.00;;;;4990642;28;20206;-80
2023/04/09 09:54:01;;;;;;;18.38;14.10;;;;;19.90;102338.00;;;;5010168;28;20363;-81
2023/04/09 09:56:32;;;;;;;17.80;13.88;;;;;20.00;102342.00;;;;4999355;28;20237;-81
2023/04/09 09:59:07;;;;;;;22.23;16.73;;;;;20.00;102343.00;;;;4989918;28;21029;-81
2023/04/09 10:01:35;;;;;;;21.52;15.73;;;;;20.10;102340.00;;;;4990654;28;20232;-81
2023/04/09 10:04:05;;;;;;;20.77;15.35;;;;;20.20;102332.00;;;;4989952;28;20233;-80
2023/04/09 10:06:34;;;;;;;20.67;14.65;;;;;20.30;102327.00;;;;4990848;28;20577;-80
2023/04/09 10:09:05;;;;;;;20.85;14.75;;;;;20.30;102331.00;;;;4989996;28;20209;-81
2023/04/09 10:11:35;;;;;;;17.23;14.43;;;;;20.50;102330.00;;;;4990213;28;20197;-82
2023/04/09 10:14:05;;;;;;;21.23;16.45;;;;;20.50;102320.00;;;;5003661;28;20637;-82
2023/04/09 10:16:32;;;;;;;19.70;14.57;;;;;20.60;102323.00;;;;5009725;28;20227;-80
2023/04/09 10:19:00;;;;;;;19.55;15.15;;;;;20.70;102315.00;;;;5009415;28;20211;-80
2023/04/09 10:21:35;;;;;;;17.73;14.57;;;;;20.70;102309.00;;;;5009638;28;20220;-80
2023/04/09 10:24:04;;;;;;;19.40;14.40;;;;;20.90;102302.00;;;;5006943;28;20200;-80
2023/04/09 10:26:34;;;;;;;17.95;14.00;;;;;20.90;102296.00;;;;5009315;28;20201;-81
2023/04/09 10:29:07;;;;;;;17.33;13.35;;;;;21.00;102290.00;;;;5009128;28;20197;-81
2023/04/09 10:31:51;;;;;;;16.98;14.00;;;;;20.90;102291.00;;;;4990293;28;20193;-81
2023/04/09 10:34:20;;;;;;;15.32;11.63;;;;;21.10;102291.00;;;;4999407;28;20212;-81
2023/04/09 10:36:51;;;;;;;18.27;14.23;;;;;21.10;102287.00;;;;5009375;28;20236;-80
2023/04/09 10:39:19;;;;;;;17.73;13.25;;;;;21.10;102293.00;;;;5009425;28;20209;-81
2023/04/09 10:41:48;;;;;;;16.63;12.32;;;;;21.20;102293.00;;;;5009053;28;20204;-81
2023/04/09 10:44:22;;;;;;;17.40;12.88;;;;;21.20;102294.00;;;;5008857;28;20625;-81
2023/04/09 10:46:52;;;;;;;15.25;12.25;;;;;21.30;102283.00;;;;5002544;28;20686;-80
2023/04/09 10:49:21;;;;;;;16.20;13.18;;;;;21.40;102283.00;;;;4989149;28;20210;-80
2023/04/09 10:51:52;;;;;;;16.83;12.43;;;;;21.40;102282.00;;;;4998131;28;20254;-81
2023/04/09 10:54:53;;;;;;;14.05;11.32;;;;;21.40;102282.00;;;;5006702;28;20205;-81
2023/04/09 10:57:23;;;;;;;16.95;11.90;;;;;21.50;102274.00;;;;5006101;28;20212;-81
2023/04/09 10:59:52;;;;;;;14.25;11.80;;;;;21.50;102277.00;;;;5008355;28;20229;-80
2023/04/09 11:03:00;;;;;;;15.27;11.98;;;;;21.60;102273.00;;;;5008937;28;20215;-81
2023/04/09 11:05:32;;;;;;;16.23;11.65;;;;;21.80;102276.00;;;;4989492;28;21134;-81
2023/04/09 11:08:05;;;;;;;14.00;11.63;;;;;21.80;102281.00;;;;4989105;28;20264;-80
2023/04/09 11:10:32;;;;;;;14.73;11.90;;;;;22.00;102273.00;;;;4989200;28;20765;-80
2023/04/09 11:13:00;;;;;;;14.32;12.18;;;;;22.00;102274.00;;;;4988635;28;20228;-81
2023/04/09 11:15:29;;;;;;;14.90;11.38;;;;;22.00;102263.00;;;;4988506;28;20316;-81
2023/04/09 11:17:57;;;;;;;17.15;12.40;;;;;22.10;102261.00;;;;4991456;28;20201;-81
2023/04/09 11:20:26;;;;;;;18.13;11.10;;;;;22.20;102261.00;;;;5004961;28;20213;-81
2023/04/09 11:22:55;;;;;;;13.85;10.98;;;;;22.30;102267.00;;;;4988712;28;20212;-81
2023/04/09 11:25:25;;;;;;;13.90;10.68;;;;;22.50;102259.00;;;;4989255;28;20233;-80
2023/04/09 11:27:53;;;;;;;12.20;9.93;;;;;22.50;102257.00;;;;4997631;28;20197;-81
2023/04/09 11:30:20;;;;;;;13.02;9.75;;;;;22.60;102260.00;;;;5007727;28;20208;-80
2023/04/09 11:32:50;;;;;;;11.38;8.55;;;;;22.50;102255.00;;;;5008538;28;20201;-80
2023/04/09 11:35:19;;;;;;;9.90;7.78;;;;;22.60;102257.00;;;;5009639;28;20204;-81
2023/04/09 11:37:48;;;;;;;11.18;8.73;;;;;22.60;102245.00;;;;5011067;28;20331;-81
2023/04/09 11:40:16;;;;;;;11.40;8.07;;;;;22.70;102242.00;;;;5010817;28;20248;-81
2023/04/09 11:42:44;;;;;;;11.15;9.57;;;;;22.70;102253.00;;;;5011293;28;20201;-81
2023/04/09 11:45:12;;;;;;;12.00;8.35;;;;;22.80;102261.00;;;;5012004;28;20203;-81
2023/04/09 11:47:41;;;;;;;11.50;8.65;;;;;22.80;102258.00;;;;5011441;28;21078;-80
2023/04/09 11:50:11;;;;;;;10.75;7.75;;;;;22.80;102258.00;;;;5012009;28;20271;-80
2023/04/09 11:52:40;;;;;;;9.38;7.40;;;;;22.90;102251.00;;;;5012919;28;20201;-81
2023/04/09 11:55:10;;;;;;;10.90;8.60;;;;;22.90;102247.00;;;;5002461;28;20206;-81
2023/04/09 11:57:41;;;;;;;12.15;9.18;;;;;23.00;102246.00;;;;4999365;28;20197;-81
2023/04/09 12:00:11;;;;;;;11.65;8.98;;;;;23.10;102234.00;;;;5011379;28;20594;-79